createdAt,value
2018-05-23T00:00:54.012Z,8.23
2018-05-23T00:03:22.733Z,6.97
2018-05-23T00:05:51.456Z,7.53
2018-05-23T00:08:20.173Z,6.82
2018-05-23T00:10:48.891Z,6.95
2018-05-23T00:13:17.606Z,7.10
2018-05-23T00:15:46.322Z,7.10
2018-05-23T00:18:15.040Z,6.90
2018-05-23T00:20:43.763Z,6.43
2018-05-23T00:23:12.493Z,7.10
2018-05-23T00:25:41.228Z,8.15
2018-05-23T00:28:10.716Z,6.75
2018-05-23T00:30:40.214Z,6.32
2018-05-23T00:33:08.936Z,7.00
2018-05-23T00:35:37.672Z,7.68
2018-05-23T00:38:06.414Z,7.25
2018-05-23T00:40:35.146Z,7.45
2018-05-23T00:43:03.867Z,7.05
2018-05-23T00:45:33.363Z,8.07
2018-05-23T00:48:02.845Z,8.15
2018-05-23T00:50:31.561Z,6.60
2018-05-23T00:53:01.063Z,6.95
2018-05-23T00:55:36.760Z,6.97
2018-05-23T00:58:06.407Z,6.85
2018-05-23T01:00:35.149Z,7.68
2018-05-23T01:03:03.888Z,7.18
2018-05-23T01:05:32.629Z,7.37
2018-05-23T01:08:01.374Z,7.85
2018-05-23T01:10:30.873Z,7.15
2018-05-23T01:12:59.619Z,6.87
2018-05-23T01:15:28.038Z,7.37
2018-05-23T01:17:56.766Z,7.07
2018-05-23T01:20:25.494Z,7.22
2018-05-23T01:22:54.221Z,7.35
2018-05-23T01:25:23.696Z,7.15
2018-05-23T01:27:52.424Z,7.45
2018-05-23T01:30:21.934Z,8.25
2018-05-23T01:32:51.414Z,7.45
2018-05-23T01:35:20.909Z,8.05
2018-05-23T01:37:49.626Z,7.80
2018-05-23T01:40:19.098Z,7.47
2018-05-23T01:42:47.175Z,8.40
2018-05-23T01:45:15.899Z,8.10
2018-05-23T01:47:45.381Z,7.75
2018-05-23T01:50:14.117Z,7.47
2018-05-23T01:52:42.849Z,7.22
2018-05-23T01:55:11.595Z,8.40
2018-05-23T01:57:40.316Z,7.68
2018-05-23T02:00:08.702Z,7.45
2018-05-23T02:02:37.407Z,7.03
2018-05-23T02:05:06.916Z,8.00
2018-05-23T02:07:35.749Z,8.05
2018-05-23T02:10:03.822Z,8.55
2018-05-23T02:12:32.574Z,9.02
2018-05-23T02:15:02.052Z,7.60
2018-05-23T02:17:30.782Z,7.55
2018-05-23T02:19:59.511Z,7.80
2018-05-23T02:22:28.231Z,8.10
2018-05-23T02:24:57.719Z,7.50
2018-05-23T02:27:26.446Z,7.80
2018-05-23T02:29:54.844Z,8.05
2018-05-23T02:32:23.566Z,9.13
2018-05-23T02:34:51.656Z,9.23
2018-05-23T02:37:20.379Z,8.88
2018-05-23T02:39:49.111Z,7.60
2018-05-23T02:42:18.365Z,8.15
2018-05-23T02:44:47.103Z,10.90
2018-05-23T02:47:15.885Z,15.77
2018-05-23T02:49:45.547Z,15.93
2018-05-23T02:52:14.287Z,13.23
2018-05-23T02:54:43.024Z,10.60
2018-05-23T02:57:12.350Z,11.70
2018-05-23T02:59:41.075Z,11.60
2018-05-23T03:02:09.827Z,12.52
2018-05-23T03:04:38.562Z,12.55
2018-05-23T03:07:07.286Z,12.30
2018-05-23T03:09:36.034Z,12.37
2018-05-23T03:12:04.441Z,11.50
2018-05-23T03:14:34.006Z,13.13
2018-05-23T03:17:02.881Z,12.43
2018-05-23T03:19:31.597Z,14.60
2018-05-23T03:22:00.433Z,13.00
2018-05-23T03:24:29.822Z,13.48
2018-05-23T03:26:59.329Z,13.93
2018-05-23T03:29:28.822Z,13.50
2018-05-23T03:31:57.588Z,13.52
2018-05-23T03:34:26.320Z,13.38
2018-05-23T03:36:55.056Z,14.15
2018-05-23T03:39:23.467Z,14.27
2018-05-23T03:41:52.956Z,15.32
2018-05-23T03:44:21.687Z,15.15
2018-05-23T03:46:50.434Z,15.40
2018-05-23T03:49:19.159Z,14.23
2018-05-23T03:51:48.649Z,14.73
2018-05-23T03:54:18.133Z,14.55
2018-05-23T03:56:46.872Z,14.75
2018-05-23T03:59:15.273Z,15.55
2018-05-23T04:01:55.138Z,14.25
2018-05-23T04:04:35.517Z,14.77
2018-05-23T04:20:28.611Z,15.00
2018-05-23T04:22:57.340Z,14.30
2018-05-23T04:25:26.078Z,14.48
2018-05-23T04:27:54.820Z,15.57
2018-05-23T04:30:23.643Z,14.02
2018-05-23T04:32:52.526Z,15.50
2018-05-23T04:35:23.277Z,14.20
2018-05-23T04:37:53.359Z,14.32
2018-05-23T04:40:22.143Z,16.55
2018-05-23T04:45:31.525Z,14.20
2018-05-23T04:48:01.673Z,14.48
2018-05-23T04:50:30.422Z,14.18
2018-05-23T04:52:59.149Z,15.77
2018-05-23T04:55:28.475Z,15.73
2018-05-23T04:58:04.375Z,13.95
2018-05-23T05:00:33.573Z,15.77
2018-05-23T05:03:02.318Z,15.93
2018-05-23T05:05:31.524Z,15.15
2018-05-23T05:08:00.892Z,14.20
2018-05-23T05:10:29.611Z,15.43
2018-05-23T05:12:58.338Z,16.35
2018-05-23T05:15:27.494Z,14.70
2018-05-23T05:17:56.209Z,15.95
2018-05-23T05:20:24.613Z,17.75
2018-05-23T05:22:54.105Z,16.42
2018-05-23T05:25:22.850Z,16.02
2018-05-23T05:27:51.594Z,14.40
2018-05-23T05:30:21.114Z,14.63
2018-05-23T05:32:50.603Z,15.70
2018-05-23T05:35:21.003Z,16.17
2018-05-23T05:37:49.746Z,15.48
2018-05-23T05:40:18.481Z,20.50
2018-05-23T05:42:47.209Z,17.35
2018-05-23T05:45:15.921Z,16.10
2018-05-23T05:47:44.650Z,17.55
2018-05-23T05:50:13.389Z,18.37
2018-05-23T05:52:43.569Z,21.67
2018-05-23T05:55:13.184Z,22.62
2018-05-23T05:57:42.468Z,18.42
2018-05-23T06:00:13.113Z,17.08
2018-05-23T06:02:41.968Z,13.88
2018-05-23T06:05:10.374Z,13.13
2018-05-23T06:07:38.810Z,15.00
2018-05-23T06:10:07.213Z,16.25
2018-05-23T06:12:35.948Z,17.58
2018-05-23T06:15:05.014Z,17.58
2018-05-23T06:17:33.818Z,18.17
2018-05-23T06:20:02.552Z,15.70
2018-05-23T06:22:31.520Z,16.40
2018-05-23T06:25:00.187Z,15.65
2018-05-23T06:27:28.939Z,15.52
2018-05-23T06:29:57.684Z,14.32
2018-05-23T06:32:27.193Z,15.70
2018-05-23T06:34:56.683Z,15.25
2018-05-23T06:37:25.465Z,15.85
2018-05-23T06:39:54.193Z,15.02
2018-05-23T06:42:23.800Z,14.43
2018-05-23T06:44:52.535Z,16.08
2018-05-23T06:47:21.286Z,14.57
2018-05-23T06:49:50.272Z,14.45
2018-05-23T06:52:19.013Z,14.23
2018-05-23T06:54:47.744Z,13.18
2018-05-23T06:57:16.533Z,13.68
2018-05-23T06:59:45.877Z,13.02
2018-05-23T07:02:14.605Z,14.48
2018-05-23T07:04:44.109Z,13.80
2018-05-23T07:07:13.619Z,14.02
2018-05-23T07:09:43.114Z,13.27
2018-05-23T07:12:12.620Z,13.75
2018-05-23T07:14:42.700Z,13.35
2018-05-23T07:17:11.437Z,13.27
2018-05-23T07:19:40.174Z,12.50
2018-05-23T07:22:10.939Z,13.98
2018-05-23T07:24:39.680Z,12.07
2018-05-23T07:27:08.413Z,13.48
2018-05-23T07:29:37.170Z,12.20
2018-05-23T07:32:06.679Z,11.75
2018-05-23T07:34:35.440Z,13.43
2018-05-23T07:37:04.179Z,11.85
2018-05-23T07:39:32.944Z,11.98
2018-05-23T07:42:03.261Z,11.65
2018-05-23T07:44:32.776Z,11.93
2018-05-23T07:47:01.529Z,11.57
2018-05-23T07:49:31.029Z,10.80
2018-05-23T07:51:59.908Z,9.68
2018-05-23T07:54:29.420Z,10.90
2018-05-23T07:56:58.946Z,9.45
2018-05-23T07:59:27.690Z,13.25
2018-05-23T08:01:57.405Z,13.13
2018-05-23T08:04:25.794Z,8.73
2018-05-23T08:06:54.544Z,10.95
2018-05-23T08:09:23.291Z,13.15
2018-05-23T08:11:52.789Z,9.25
2018-05-23T08:14:22.294Z,9.10
2018-05-23T08:16:51.812Z,7.80
2018-05-23T08:19:20.557Z,13.55
2018-05-23T08:21:49.297Z,7.78
2018-05-23T08:24:18.141Z,9.23
2018-05-23T08:26:47.046Z,10.20
2018-05-23T08:29:15.765Z,7.30
2018-05-23T08:31:44.550Z,10.60
2018-05-23T08:34:13.293Z,8.20
2018-05-23T08:36:42.014Z,7.50
2018-05-23T08:39:11.254Z,8.38
2018-05-23T08:41:40.816Z,7.87
2018-05-23T08:44:10.888Z,8.10
2018-05-23T08:46:39.636Z,6.87
2018-05-23T08:49:09.138Z,7.82
2018-05-23T08:51:38.633Z,7.18
2018-05-23T08:54:09.794Z,8.02
2018-05-23T08:56:46.515Z,8.10
2018-05-23T08:59:16.159Z,7.05
2018-05-23T09:01:45.637Z,8.90
2018-05-23T09:04:14.085Z,6.70
2018-05-23T09:06:42.826Z,7.20
2018-05-23T09:09:12.046Z,7.50
2018-05-23T09:11:40.847Z,8.10
2018-05-23T09:14:10.905Z,7.90
2018-05-23T09:16:40.453Z,8.27
2018-05-23T09:19:10.922Z,7.13
2018-05-23T09:21:40.289Z,7.83
2018-05-23T09:24:09.367Z,6.70
2018-05-23T09:26:38.726Z,7.10
2018-05-23T09:29:16.115Z,7.40
2018-05-23T09:31:49.426Z,6.93
2018-05-23T09:34:19.141Z,7.70
2018-05-23T09:36:49.293Z,6.87
2018-05-23T09:39:25.042Z,7.57
2018-05-23T09:41:55.360Z,7.27
2018-05-23T09:44:26.919Z,6.83
2018-05-23T09:46:56.610Z,6.40
2018-05-23T09:49:25.651Z,9.80
2018-05-23T09:51:58.672Z,6.90
2018-05-23T09:54:28.978Z,6.60
2018-05-23T09:56:58.249Z,6.97
2018-05-23T09:59:29.640Z,6.33
2018-05-23T10:02:04.748Z,6.70
2018-05-23T10:04:34.380Z,5.40
2018-05-23T10:07:04.291Z,5.70
2018-05-23T10:09:52.396Z,7.00
2018-05-23T10:12:28.729Z,6.93
2018-05-23T10:14:58.132Z,6.37
2018-05-23T10:17:32.353Z,6.50
2018-05-23T10:20:02.572Z,6.53
2018-05-23T10:22:35.588Z,6.70
2018-05-23T10:25:06.063Z,6.17
2018-05-23T10:27:35.577Z,5.53
2018-05-23T10:30:07.062Z,6.77
2018-05-23T10:32:35.900Z,6.60
2018-05-23T10:35:05.920Z,6.70
2018-05-23T10:37:34.393Z,5.70
2018-05-23T10:40:02.861Z,6.23
2018-05-23T10:42:31.605Z,7.30
2018-05-23T10:45:00.988Z,7.90
2018-05-23T10:47:29.443Z,7.57
2018-05-23T10:49:57.905Z,6.00
2018-05-23T10:52:27.124Z,6.47
2018-05-23T10:54:55.570Z,6.47
2018-05-23T10:57:24.046Z,6.70
2018-05-23T10:59:52.497Z,5.77
2018-05-23T11:02:20.978Z,7.43
2018-05-23T11:04:49.984Z,6.23
2018-05-23T11:07:18.448Z,15.37
2018-05-23T11:09:48.977Z,7.20
2018-05-23T11:12:17.439Z,14.13
2018-05-23T11:14:45.935Z,7.30
2018-05-23T11:17:15.955Z,6.73
2018-05-23T11:19:44.956Z,7.13
2018-05-23T11:22:13.431Z,6.40
2018-05-23T11:24:42.509Z,7.13
2018-05-23T11:27:12.090Z,6.55
2018-05-23T11:29:40.915Z,7.62
2018-05-23T11:32:09.843Z,6.57
2018-05-23T11:34:38.325Z,7.30
2018-05-23T11:37:07.074Z,7.97
2018-05-23T11:39:35.793Z,8.25
2018-05-23T11:42:04.269Z,8.77
2018-05-23T11:44:32.419Z,8.90
2018-05-23T11:47:00.896Z,9.13
2018-05-23T11:49:29.363Z,9.70
2018-05-23T11:51:58.576Z,8.90
2018-05-23T11:54:28.086Z,9.85
2018-05-23T11:56:57.014Z,9.30
2018-05-23T11:59:25.784Z,10.20
2018-05-23T12:01:54.262Z,10.03
2018-05-23T12:04:23.172Z,14.05
2018-05-23T12:06:51.307Z,13.57
2018-05-23T12:09:20.866Z,8.55
2018-05-23T12:11:49.595Z,9.70
2018-05-23T12:14:18.372Z,8.32
2018-05-23T12:16:47.109Z,9.00
2018-05-23T12:19:17.395Z,9.18
2018-05-23T12:21:46.118Z,9.27
2018-05-23T12:24:14.889Z,9.43
2018-05-23T12:26:43.637Z,9.82
2018-05-23T12:29:12.429Z,9.25
2018-05-23T12:31:41.169Z,8.95
2018-05-23T12:34:11.330Z,10.52
2018-05-23T12:36:40.059Z,9.55
2018-05-23T12:39:10.426Z,9.77
2018-05-23T12:41:39.171Z,9.80
2018-05-23T12:44:11.466Z,8.85
2018-05-23T12:46:41.821Z,8.70
2018-05-23T12:49:12.744Z,8.75
2018-05-23T12:51:44.334Z,8.85
2018-05-23T12:54:13.866Z,8.75
2018-05-23T12:56:43.542Z,9.25
2018-05-23T12:59:13.014Z,9.68
2018-05-23T13:01:42.527Z,9.30
2018-05-23T13:04:11.893Z,8.60
2018-05-23T13:06:40.641Z,8.68
2018-05-23T13:09:09.365Z,9.05
2018-05-23T13:11:38.097Z,8.60
2018-05-23T13:14:06.827Z,9.10
2018-05-23T13:16:35.219Z,8.40
2018-05-23T13:19:04.907Z,9.07
2018-05-23T13:21:33.636Z,7.70
2018-05-23T13:24:02.370Z,9.25
2018-05-23T13:26:31.120Z,8.50
2018-05-23T13:29:00.630Z,9.90
2018-05-23T13:31:31.059Z,9.38
2018-05-23T13:33:59.551Z,8.90
2018-05-23T13:36:28.836Z,10.10
2018-05-23T13:38:57.695Z,8.75
2018-05-23T13:41:28.601Z,8.87
2018-05-23T13:43:59.473Z,8.17
2018-05-23T13:46:29.515Z,8.80
2018-05-23T13:48:58.522Z,9.00
2018-05-23T13:51:28.018Z,9.13
2018-05-23T13:53:56.419Z,9.30
2018-05-23T13:56:25.145Z,10.07
2018-05-23T13:58:53.910Z,9.52
2018-05-23T14:01:22.385Z,8.67
2018-05-23T14:46:27.826Z,9.40
2018-05-23T14:48:56.353Z,9.90
2018-05-23T14:51:25.094Z,7.93
2018-05-23T14:53:53.564Z,9.07
2018-05-23T14:56:23.102Z,8.93
2018-05-23T14:59:01.129Z,7.90
2018-05-23T15:01:31.262Z,7.90
2018-05-23T15:04:00.560Z,7.47
2018-05-23T15:06:29.810Z,8.93
2018-05-23T15:08:59.109Z,7.70
2018-05-23T15:11:28.625Z,9.15
2018-05-23T15:13:57.376Z,8.25
2018-05-23T15:16:25.861Z,7.20
2018-05-23T15:18:54.334Z,6.63
2018-05-23T15:21:46.444Z,6.70
2018-05-23T15:24:15.725Z,6.93
2018-05-23T15:26:44.732Z,6.37
2018-05-23T15:29:13.923Z,6.40
2018-05-23T15:31:42.403Z,6.80
2018-05-23T15:34:11.207Z,6.20
2018-05-23T15:36:39.693Z,6.70
2018-05-23T15:39:08.997Z,6.73
2018-05-23T15:41:38.313Z,6.00
2018-05-23T15:44:07.590Z,6.53
2018-05-23T15:46:36.145Z,6.07
2018-05-23T15:49:04.288Z,6.50
2018-05-23T15:51:32.782Z,7.70
2018-05-23T15:54:01.266Z,6.30
2018-05-23T15:56:29.811Z,5.50
2018-05-23T15:58:58.583Z,6.10
2018-05-23T16:01:29.311Z,6.30
2018-05-23T16:03:59.227Z,5.67
2018-05-23T16:06:27.792Z,6.20
2018-05-23T16:08:57.131Z,6.40
2018-05-23T16:11:26.269Z,6.20
2018-05-23T16:13:54.738Z,6.00
2018-05-23T16:16:24.026Z,5.90
2018-05-23T16:18:53.301Z,6.20
2018-05-23T16:21:21.816Z,5.43
2018-05-23T16:23:49.998Z,5.10
2018-05-23T16:26:18.490Z,5.73
2018-05-23T16:28:46.971Z,5.23
2018-05-23T16:31:15.521Z,5.97
2018-05-23T16:33:45.055Z,6.80
2018-05-23T16:36:13.539Z,5.20
2018-05-23T16:38:42.851Z,4.90
2018-05-23T16:41:11.749Z,6.07
2018-05-23T16:43:41.046Z,5.90
2018-05-23T16:46:09.785Z,4.85
2018-05-23T16:48:39.402Z,4.93
2018-05-23T16:51:07.845Z,4.73
2018-05-23T16:53:37.916Z,5.60
2018-05-23T16:56:06.386Z,5.70
2018-05-23T16:58:34.838Z,6.00
2018-05-23T17:01:03.557Z,5.78
2018-05-23T17:03:32.270Z,5.40
2018-05-23T17:06:01.713Z,6.13
2018-05-23T17:08:31.202Z,5.30
2018-05-23T17:15:11.723Z,6.32
2018-05-23T17:17:40.179Z,6.80
2018-05-23T17:20:09.321Z,6.32
2018-05-23T17:22:37.765Z,6.63
2018-05-23T17:25:07.695Z,6.18
2018-05-23T17:27:36.416Z,6.62
2018-05-23T17:30:04.475Z,5.82
2018-05-23T17:32:33.184Z,5.80
2018-05-23T17:35:01.891Z,7.18
2018-05-23T17:37:30.616Z,7.40
2018-05-23T17:39:59.068Z,7.07
2018-05-23T17:42:27.535Z,8.07
2018-05-23T17:44:56.256Z,8.00
2018-05-23T17:47:24.698Z,8.10
2018-05-23T17:49:53.417Z,8.05
2018-05-23T17:52:21.865Z,7.67
2018-05-23T17:54:50.598Z,8.10
2018-05-23T17:57:19.329Z,9.88
2018-05-23T17:59:48.054Z,8.65
2018-05-23T18:02:16.498Z,8.70
2018-05-23T18:04:45.723Z,9.20
2018-05-23T18:07:14.440Z,8.85
2018-05-23T18:09:43.167Z,9.82
2018-05-23T18:12:11.901Z,9.10
2018-05-23T18:14:40.813Z,10.38
2018-05-23T18:17:09.268Z,9.87
2018-05-23T18:19:37.982Z,9.50
2018-05-23T18:22:06.696Z,9.57
2018-05-23T18:24:35.443Z,10.25
2018-05-23T18:27:03.907Z,10.50
2018-05-23T18:29:33.528Z,10.05
2018-05-23T18:32:02.335Z,10.43
2018-05-23T18:34:31.061Z,10.10
2018-05-23T18:54:35.164Z,10.95
2018-05-23T19:06:09.789Z,10.68
2018-05-23T19:08:38.548Z,10.57
2018-05-23T19:11:25.840Z,9.88
2018-05-23T19:14:32.395Z,10.77
2018-05-23T19:23:08.833Z,11.35
2018-05-23T20:00:42.864Z,10.60
2018-05-23T20:03:11.587Z,11.27
2018-05-23T20:05:44.044Z,11.00
2018-05-23T20:08:15.656Z,9.80
2018-05-23T20:10:46.278Z,10.10
2018-05-23T20:13:15.039Z,11.02
2018-05-23T20:15:44.577Z,9.88
2018-05-23T20:18:13.892Z,9.90
2018-05-23T20:20:42.655Z,9.75
2018-05-23T20:23:11.538Z,10.10
2018-05-23T20:25:41.053Z,9.93
2018-05-23T20:28:10.490Z,9.20
2018-05-23T20:30:40.029Z,10.05
2018-05-23T20:33:10.580Z,9.57
2018-05-23T20:35:50.589Z,10.52
2018-05-23T20:38:19.852Z,9.98
2018-05-23T20:40:49.249Z,9.75
2018-05-23T20:43:18.733Z,8.18
2018-05-23T20:45:48.217Z,9.07
2018-05-23T20:48:16.941Z,8.25
2018-05-23T20:50:46.416Z,7.40
2018-05-23T20:53:15.138Z,7.68
2018-05-23T20:55:44.632Z,7.47
2018-05-23T20:58:14.105Z,7.55
2018-05-23T21:00:45.113Z,7.45
2018-05-23T21:03:13.829Z,7.50
2018-05-23T21:05:43.486Z,7.40
2018-05-23T21:13:52.848Z,7.50
2018-05-23T21:16:22.320Z,6.85
2018-05-23T21:18:51.049Z,6.40
2018-05-23T21:21:20.527Z,6.37
2018-05-23T21:23:49.243Z,6.90
2018-05-23T21:26:18.818Z,6.43
2018-05-23T21:28:47.559Z,6.45
2018-05-23T21:31:16.272Z,6.18
2018-05-23T21:33:44.977Z,6.50
2018-05-23T21:36:13.701Z,5.60
2018-05-23T21:38:43.172Z,6.30
2018-05-23T21:41:11.882Z,6.10
2018-05-23T21:43:40.580Z,6.78
2018-05-23T21:46:10.052Z,5.80
2018-05-23T21:48:38.425Z,6.15
2018-05-23T21:51:06.817Z,7.30
2018-05-23T21:53:35.530Z,5.22
2018-05-23T21:56:04.682Z,5.50
2018-05-23T21:58:33.393Z,5.75
2018-05-23T22:01:02.109Z,5.55
2018-05-23T22:03:31.585Z,6.65
2018-05-23T22:06:00.316Z,7.18
2018-05-23T22:08:29.028Z,6.75
2018-05-23T22:10:57.736Z,5.60
2018-05-23T22:13:26.458Z,6.57
2018-05-23T22:15:55.944Z,6.12
2018-05-23T22:18:24.726Z,56.85
2018-05-23T22:20:54.329Z,8.23
2018-05-23T22:23:23.078Z,7.00
2018-05-23T22:25:51.803Z,7.22
2018-05-23T22:28:20.520Z,7.07
2018-05-23T22:30:50.139Z,10.30
2018-05-23T22:33:19.625Z,7.45
2018-05-23T22:35:48.336Z,5.97
2018-05-23T22:38:17.817Z,6.25
2018-05-23T22:40:46.531Z,5.20
2018-05-23T22:43:16.014Z,6.45
2018-05-23T22:45:44.729Z,6.55
2018-05-23T22:48:13.451Z,7.05
2018-05-23T22:50:41.833Z,6.97
2018-05-23T22:53:11.309Z,5.30
2018-05-23T22:55:40.066Z,6.40
2018-05-23T22:58:08.883Z,6.45
2018-05-23T23:00:38.378Z,6.25
2018-05-23T23:03:07.514Z,6.37
2018-05-23T23:05:36.208Z,6.30
2018-05-23T23:08:04.949Z,6.10
2018-05-23T23:10:34.421Z,5.70
2018-05-23T23:13:03.117Z,6.20
2018-05-23T23:15:31.260Z,5.95
2018-05-23T23:17:59.739Z,5.57
2018-05-23T23:20:28.451Z,6.25
2018-05-23T23:22:57.167Z,6.18
2018-05-23T23:25:25.881Z,6.10
2018-05-23T23:27:54.591Z,5.97
2018-05-23T23:30:23.318Z,6.37
2018-05-23T23:32:52.214Z,6.45
2018-05-23T23:35:20.938Z,6.78
2018-05-23T23:37:49.646Z,6.07
2018-05-23T23:40:18.390Z,6.15
2018-05-23T23:42:47.878Z,6.93
2018-05-23T23:45:16.582Z,6.45
2018-05-23T23:47:45.281Z,5.22
2018-05-23T23:50:13.765Z,6.97
2018-05-23T23:52:43.270Z,6.47
2018-05-23T23:55:12.733Z,6.30
2018-05-23T23:57:41.442Z,5.85
